»·PEaware :: N1655M KSMX-KBFL

N1655M :: KSMX-KBFL

FLIGHT INFORMATION

Flight Status: Arrived
Operator: Privately registered:
United States
More flights under this callsign
Pilot: Donivan M. (20253)
Aircraft: CESSNA 172 SKYHAWK
(C172)
More flights by this aircraft type
Origin: KSMX Santa Maria Pub/Capt Hancock
United States
Destination: KBFL Meadows
United States
More flights between these airports :: More routes between these airports
Route: +
File this flight plan on PilotEdge
Remarks: CAT 5
Altitude:
(Current/Filed)
0ft
Speed:
(Current/Filed)
0kts
Departed: 24-Sep-18 05:56 PM
Arrived: 24-Sep-18 06:47 PM
Distance/Time
Traveled:
76nm/0:50
Distance/Time
To Go:
Arrived

Flight Plot

Page will automatically refresh every two minutes.


Map Options




Map Legend


Flown Route
Filed Route
Departure Airport
Arrival Airport
Navaid (VOR, NDB)
Fix

Horizontal Profiles

Position Reports

Time Latitude Longitude Heading Altitude Ground
Speed
24-Sep-18 17:52 34.897148 -120.446138 137 265ft 0kts
24-Sep-18 17:53 34.896828 -120.447069 226 265ft 9kts
24-Sep-18 17:54 34.893824 -120.444689 141 265ft 10kts
24-Sep-18 17:55 34.893638 -120.444738 286 265ft 0kts
24-Sep-18 17:56 34.893644 -120.444759 289 265ft 1kts
24-Sep-18 17:57 34.893221 -120.444954 185 265ft 0kts
24-Sep-18 17:58 34.898057 -120.451547 318 442ft 73kts
24-Sep-18 17:59 34.911570 -120.469328 264 1344ft 85kts
24-Sep-18 18:00 34.893846 -120.466948 121 2150ft 106kts
24-Sep-18 18:01 34.878793 -120.439436 124 3069ft 98kts
24-Sep-18 18:02 34.864111 -120.411744 121 3872ft 98kts
24-Sep-18 18:03 34.863655 -120.381831 60 4646ft 92kts
24-Sep-18 18:04 34.872608 -120.352385 59 5371ft 92kts
24-Sep-18 18:05 34.884294 -120.324289 59 6038ft 94kts
24-Sep-18 18:06 34.894021 -120.294682 62 6677ft 95kts
24-Sep-18 18:07 34.906193 -120.266408 51 7281ft 93kts
24-Sep-18 18:08 34.919480 -120.239062 55 7510ft 97kts
24-Sep-18 18:09 34.933837 -120.209243 56 7560ft 108kts
24-Sep-18 18:10 34.948175 -120.175638 60 7483ft 117kts
24-Sep-18 18:11 34.963355 -120.141130 55 7404ft 114kts
24-Sep-18 18:12 34.979736 -120.109231 57 7437ft 106kts
24-Sep-18 18:13 34.994175 -120.077324 57 7443ft 109kts
24-Sep-18 18:14 35.009402 -120.045578 57 7453ft 109kts
24-Sep-18 18:15 35.024500 -120.013721 62 7461ft 109kts
24-Sep-18 18:16 35.039374 -119.981722 53 7469ft 108kts
24-Sep-18 18:17 35.054283 -119.949896 57 7474ft 108kts
24-Sep-18 18:18 35.068567 -119.917441 60 7482ft 108kts
24-Sep-18 18:19 35.083774 -119.885761 60 7483ft 108kts
24-Sep-18 18:20 35.096538 -119.852517 61 7491ft 108kts
24-Sep-18 18:21 35.110074 -119.820759 57 7498ft 108kts
24-Sep-18 18:22 35.125226 -119.789065 58 7495ft 109kts
24-Sep-18 18:23 35.138813 -119.756169 58 7509ft 108kts
24-Sep-18 18:24 35.151926 -119.722821 59 7500ft 109kts
24-Sep-18 18:25 35.165966 -119.690411 57 7461ft 107kts
24-Sep-18 18:26 35.178989 -119.658712 59 7426ft 102kts
24-Sep-18 18:27 35.192415 -119.628057 61 7386ft 101kts
24-Sep-18 18:28 35.205246 -119.597675 60 7368ft 99kts
24-Sep-18 18:29 35.217947 -119.568053 59 7361ft 98kts
24-Sep-18 18:30 35.230104 -119.538210 59 7505ft 95kts
24-Sep-18 18:31 35.242800 -119.509040 61 7467ft 98kts
24-Sep-18 18:32 35.254947 -119.479526 59 7458ft 97kts
24-Sep-18 18:33 35.267132 -119.449964 58 7449ft 97kts
24-Sep-18 18:34 35.278469 -119.421214 60 7064ft 94kts
24-Sep-18 18:35 35.291472 -119.390982 59 6607ft 102kts
24-Sep-18 18:36 35.304942 -119.359605 59 6138ft 105kts
24-Sep-18 18:37 35.318087 -119.328658 60 5670ft 107kts
24-Sep-18 18:38 35.332019 -119.295651 61 5130ft 109kts
24-Sep-18 18:39 35.345589 -119.261746 61 4503ft 115kts
24-Sep-18 18:40 35.357031 -119.225953 72 3922ft 113kts
24-Sep-18 18:41 35.365409 -119.189347 69 3309ft 111kts
24-Sep-18 18:42 35.372633 -119.152393 76 2715ft 111kts
24-Sep-18 18:43 35.376975 -119.115449 80 2156ft 111kts
24-Sep-18 18:44 35.378196 -119.078320 81 1782ft 91kts
24-Sep-18 18:45 35.389575 -119.054817 47 1561ft 81kts
24-Sep-18 18:46 35.405250 -119.034573 19 980ft 73kts
24-Sep-18 18:47 35.421763 -119.041835 320 708ft 68kts
24-Sep-18 18:48 35.434500 -119.056813 317 487ft 41kts
24-Sep-18 18:49 35.438176 -119.059275 119 497ft 12kts
24-Sep-18 18:50 35.434122 -119.054279 137 492ft 20kts
24-Sep-18 18:51 35.430395 -119.049806 134 491ft 19kts
24-Sep-18 18:52 35.429182 -119.046915 355 492ft 4kts

Navigation Log

Ident Type
Flight plan parsing failed, navigation log unavailable